Friday, October 19, 2018, 7:52 AM EDT
Back to Local

KMSS, Massena International -richards Fld

Location: Massena, NY, United States Lat: 44.933
Local Time: 7:52 AM EDT (11:52 GMT) Lon: -74.85
Time Zone: US/Eastern Elev: 213 ft

Show me the last for .
Show Decoded

2018-10-19 06:53 METAR KMSS 191053Z AUTO 21012KT 10SM CLR 05/03 A3006 RMK AO2 SLP182 T00500028 =
2018-10-19 05:53 METAR KMSS 190953Z AUTO 22010KT 10SM CLR 04/02 A3008 RMK AO2 SLP191 T00440022 =
2018-10-19 04:53 METAR KMSS 190853Z AUTO 22009KT 10SM CLR 04/01 A3010 RMK AO2 SLP195 T00440011
                 56019 =
2018-10-19 03:53 METAR KMSS 190753Z AUTO 22007KT 10SM CLR 04/01 A3011 RMK AO2 SLP201 T00390011 =
2018-10-19 02:53 METAR KMSS 190653Z AUTO 22008KT 10SM SCT070 04/01 A3013 RMK AO2 SLP206 T00440006
                 =
2018-10-19 01:53 METAR KMSS 190553Z AUTO 22010KT 10SM OVC070 05/00 A3015 RMK AO2 SLP214 T00500000
                 10050 20028 56020 =
2018-10-19 00:53 METAR KMSS 190453Z AUTO 21008KT 10SM OVC070 04/M01 A3017 RMK AO2 SLP219
                 T00441006 400611017 =
2018-10-18 23:53 METAR KMSS 190353Z AUTO 21006KT 10SM OVC080 04/M01 A3020 RMK AO2 SLP230
                 T00391011 =
2018-10-18 22:53 METAR KMSS 190253Z AUTO 21004KT 10SM BKN080 OVC100 03/M02 A3021 RMK AO2 SLP236
                 T00331022 56011 =
2018-10-18 21:53 METAR KMSS 190153Z AUTO 22009KT 10SM OVC100 04/M03 A3022 RMK AO2 SLP237
                 T00391033 =
2018-10-18 20:53 METAR KMSS 190053Z AUTO 23009KT 10SM OVC070 04/M04 A3023 RMK AO2 SLP243
                 T00391044 =
2018-10-18 19:53 METAR KMSS 182353Z AUTO 22007KT 10SM OVC070 03/M06 A3025 RMK AO2 SLP247
                 T00331061 10061 20028 58006 =
2018-10-18 18:53 METAR KMSS 182253Z AUTO 22008KT 10SM OVC090 04/M07 A3026 RMK AO2 SLP251
                 T00391072 =
2018-10-18 17:53 METAR KMSS 182153Z AUTO 25012G17KT 10SM CLR 04/M08 A3026 RMK AO2 SLP253
                 T00441083 =
2018-10-18 16:53 METAR KMSS 182053Z AUTO 24012G18KT 10SM CLR 06/M08 A3026 RMK AO2 SLP253
                 T00561083 57015 =
2018-10-18 15:53 METAR KMSS 181953Z AUTO 27013G22KT 10SM CLR 06/M08 A3028 RMK AO2 SLP259
                 T00611083 =
2018-10-18 14:53 METAR KMSS 181853Z AUTO 24014G19KT 10SM CLR 06/M08 A3029 RMK AO2 SLP261
                 T00561083 =
2018-10-18 13:53 METAR KMSS 181753Z AUTO 27015G21KT 10SM SCT055 04/M08 A3031 RMK AO2 SLP267
                 T00441078 10056 21006 58014 =
2018-10-18 12:53 METAR KMSS 181653Z AUTO 27011G16KT 10SM SCT046 04/M06 A3033 RMK AO2 SLP275
                 T00391061 =
2018-10-18 11:53 METAR KMSS 181553Z AUTO 27016KT 10SM BKN038 03/M06 A3035 RMK AO2 SLP282
                 T00281056 =
2018-10-18 10:53 METAR KMSS 181453Z AUTO 27013G19KT 10SM SCT036 03/M05 A3035 RMK AO2 SLP281
                 T00281050 50011 =
2018-10-18 09:53 METAR KMSS 181353Z AUTO 29013G20KT 10SM BKN034 01/M06 A3035 RMK AO2 SLP283
                 T00061061 =
2018-10-18 08:53 METAR KMSS 181253Z AUTO 27013KT 10SM FEW037 01/M06 A3034 RMK AO2 SLP278
                 T00061056 =
2018-10-18 07:53 METAR KMSS 181153Z AUTO 27010KT 10SM CLR M01/M06 A3031 RMK AO2 SLP270 70002
                 T10061056 10006 21017 53029 =

Support USWX by starting your Amazon purchase here.